createdAt,value
2023-02-27T00:00:22.588Z,68.60
2023-02-27T00:03:24.469Z,68.70
2023-02-27T00:06:26.597Z,68.90
2023-02-27T00:09:28.269Z,69.00
2023-02-27T00:12:30.961Z,69.00
2023-02-27T00:15:32.717Z,69.10
2023-02-27T00:18:34.346Z,69.30
2023-02-27T00:21:36.974Z,69.50
2023-02-27T00:24:38.932Z,69.60
2023-02-27T00:27:40.632Z,69.60
2023-02-27T00:30:42.320Z,69.70
2023-02-27T00:33:44.172Z,69.70
2023-02-27T00:36:45.845Z,69.70
2023-02-27T00:39:47.507Z,69.80
2023-02-27T00:42:49.558Z,69.90
2023-02-27T00:45:51.246Z,70.00
2023-02-27T00:48:52.930Z,70.20
2023-02-27T00:51:54.824Z,70.20
2023-02-27T00:54:56.471Z,70.40
2023-02-27T00:57:58.116Z,70.30
2023-02-27T01:01:00.543Z,70.50
2023-02-27T01:04:02.584Z,70.40
2023-02-27T01:07:04.279Z,70.50
2023-02-27T01:10:06.966Z,70.50
2023-02-27T01:13:10.344Z,70.50
2023-02-27T01:16:13.402Z,70.80
2023-02-27T01:19:15.076Z,70.80
2023-02-27T06:22:11.214Z,76.00
2023-02-27T06:25:13.176Z,76.00
2023-02-27T06:28:14.830Z,76.20
2023-02-27T06:31:16.849Z,76.50
2023-02-27T06:34:18.545Z,76.60
2023-02-27T06:37:21.633Z,76.60
2023-02-27T06:40:24.514Z,76.40
2023-02-27T06:43:26.519Z,76.40
2023-02-27T06:46:28.497Z,76.50
2023-02-27T06:49:30.382Z,76.60
2023-02-27T06:52:32.759Z,76.80
2023-02-27T06:55:34.695Z,76.80
2023-02-27T06:58:36.942Z,76.70
2023-02-27T07:01:38.879Z,76.70
2023-02-27T07:04:40.783Z,76.70
2023-02-27T07:07:42.477Z,76.70
2023-02-27T07:10:46.973Z,76.60
2023-02-27T07:13:48.763Z,76.50
2023-02-27T07:16:53.915Z,76.40
2023-02-27T07:19:55.771Z,76.30
2023-02-27T07:22:57.493Z,76.30
2023-02-27T07:25:59.181Z,76.40
2023-02-27T07:29:00.811Z,76.50
2023-02-27T07:32:02.777Z,76.50
2023-02-27T07:35:04.762Z,76.50
2023-02-27T07:38:06.413Z,76.60
2023-02-27T07:41:09.471Z,76.60
2023-02-27T07:44:13.507Z,76.50
2023-02-27T07:47:15.288Z,76.50
2023-02-27T07:50:17.303Z,76.40
2023-02-27T07:53:19.145Z,76.40
2023-02-27T07:56:20.789Z,76.40
2023-02-27T07:59:22.427Z,76.30
2023-02-27T08:02:24.166Z,76.30
2023-02-27T08:05:25.825Z,76.30
2023-02-27T08:08:28.445Z,76.30
2023-02-27T08:11:30.305Z,76.40
2023-02-27T08:14:31.983Z,76.20
2023-02-27T08:17:33.628Z,76.00
2023-02-27T08:20:36.949Z,75.90
2023-02-27T08:23:38.601Z,75.90
2023-02-27T08:26:40.259Z,75.80
2023-02-27T08:29:43.269Z,75.70
2023-02-27T08:32:45.879Z,75.60
2023-02-27T08:35:47.549Z,75.40
2023-02-27T08:38:49.198Z,75.20
2023-02-27T08:41:52.628Z,75.00
2023-02-27T08:44:54.361Z,74.70
2023-02-27T08:47:56.013Z,74.40
2023-02-27T08:50:58.042Z,73.90
2023-02-27T08:53:59.882Z,73.50
2023-02-27T08:57:01.531Z,73.00
2023-02-27T09:00:06.259Z,72.60
2023-02-27T09:03:08.188Z,72.30
2023-02-27T09:06:09.860Z,71.70
2023-02-27T09:09:11.516Z,71.40
2023-02-27T09:12:13.465Z,71.20
2023-02-27T09:15:15.318Z,71.00
2023-02-27T09:18:16.993Z,70.80
2023-02-27T09:21:18.723Z,70.60
2023-02-27T09:24:21.025Z,70.40
2023-02-27T09:27:23.857Z,70.30
2023-02-27T09:30:25.512Z,70.40
2023-02-27T09:33:29.330Z,70.50
2023-02-27T09:36:31.110Z,70.50
2023-02-27T09:39:32.945Z,70.50
2023-02-27T09:42:45.282Z,70.50
2023-02-27T09:45:47.531Z,70.50
2023-02-27T09:48:59.787Z,70.40
2023-02-27T09:52:01.831Z,70.40
2023-02-27T09:55:11.908Z,70.40
2023-02-27T09:58:32.128Z,70.20
2023-02-27T10:01:59.334Z,70.20
2023-02-27T10:05:14.731Z,70.00
2023-02-27T10:08:55.389Z,69.80
2023-02-27T10:12:27.248Z,69.60
2023-02-27T10:15:40.390Z,69.30
2023-02-27T10:18:51.060Z,69.10
2023-02-27T10:21:53.168Z,68.80
2023-02-27T10:24:59.916Z,68.50
2023-02-27T10:28:09.190Z,68.30
2023-02-27T10:31:23.631Z,68.10
2023-02-27T10:34:25.304Z,68.00
2023-02-27T10:37:26.977Z,68.00
2023-02-27T10:40:29.212Z,68.20
2023-02-27T10:43:31.253Z,68.50
2023-02-27T10:46:34.637Z,68.80
2023-02-27T10:49:36.386Z,68.70
2023-02-27T10:52:51.719Z,68.60
2023-02-27T10:56:02.238Z,68.10
2023-02-27T10:59:10.817Z,68.00
2023-02-27T11:02:15.865Z,68.00
2023-02-27T11:05:20.662Z,68.20
2023-02-27T11:08:27.123Z,68.30
2023-02-27T11:11:30.136Z,68.30
2023-02-27T11:14:33.330Z,67.60
2023-02-27T11:17:35.342Z,67.50
2023-02-27T11:20:40.708Z,67.70
2023-02-27T11:24:02.280Z,67.80
2023-02-27T11:27:06.745Z,67.80
2023-02-27T11:30:23.547Z,67.70
2023-02-27T11:33:25.671Z,67.30
2023-02-27T11:36:44.442Z,67.20
2023-02-27T11:39:53.393Z,66.70
2023-02-27T11:43:22.016Z,66.30
2023-02-27T11:46:47.952Z,66.20
2023-02-27T11:49:52.252Z,65.70
2023-02-27T11:52:57.288Z,65.10
2023-02-27T11:55:59.530Z,64.80
2023-02-27T11:59:13.412Z,64.70
2023-02-27T12:02:19.346Z,63.70
2023-02-27T12:05:48.079Z,63.40
2023-02-27T12:08:53.861Z,63.30
2023-02-27T12:11:55.655Z,63.10
2023-02-27T12:15:10.212Z,62.80
2023-02-27T12:18:28.230Z,62.50
2023-02-27T12:21:38.241Z,62.10
2023-02-27T12:24:47.210Z,61.80
2023-02-27T12:28:14.941Z,61.30
2023-02-27T12:31:35.317Z,60.70
2023-02-27T12:34:44.501Z,59.80
2023-02-27T12:37:46.137Z,59.10
2023-02-27T12:41:23.291Z,58.80
2023-02-27T12:44:46.239Z,59.00
2023-02-27T12:48:04.951Z,59.00
2023-02-27T12:51:31.281Z,58.90
2023-02-27T12:54:39.072Z,58.90
2023-02-27T12:57:50.570Z,59.00
2023-02-27T13:01:03.964Z,58.90
2023-02-27T13:04:38.577Z,59.00
2023-02-27T13:08:19.440Z,59.00
2023-02-27T13:11:59.017Z,59.40
2023-02-27T13:15:27.061Z,59.30
2023-02-27T13:18:45.659Z,59.10
2023-02-27T13:21:52.318Z,59.00
2023-02-27T13:24:56.241Z,58.90
2023-02-27T13:28:00.412Z,58.90
2023-02-27T13:31:18.896Z,58.90
2023-02-27T13:34:32.712Z,58.90
2023-02-27T13:37:54.192Z,58.80
2023-02-27T13:40:56.339Z,58.70
2023-02-27T13:43:59.076Z,58.60
2023-02-27T13:47:29.594Z,58.30
2023-02-27T13:50:47.693Z,57.90
2023-02-27T13:53:49.630Z,57.40
2023-02-27T13:57:03.173Z,56.90
2023-02-27T14:00:09.609Z,56.40
2023-02-27T14:03:22.069Z,56.70
2023-02-27T14:06:25.390Z,56.60
2023-02-27T14:09:27.099Z,56.20
2023-02-27T14:12:42.544Z,55.90
2023-02-27T14:15:51.650Z,55.70
2023-02-27T14:18:57.771Z,55.60
2023-02-27T14:22:11.395Z,55.80
2023-02-27T14:25:34.914Z,56.40
2023-02-27T14:28:58.071Z,56.70
2023-02-27T14:32:02.217Z,56.90
2023-02-27T14:35:05.194Z,57.10
2023-02-27T14:38:11.413Z,56.80
2023-02-27T14:41:31.368Z,56.60
2023-02-27T14:44:43.053Z,56.80
2023-02-27T14:47:45.674Z,56.80
2023-02-27T14:50:47.330Z,56.50
2023-02-27T14:54:15.465Z,56.30
2023-02-27T14:57:26.356Z,56.40
2023-02-27T15:00:36.451Z,56.60
2023-02-27T15:03:46.381Z,56.70
2023-02-27T15:06:49.717Z,56.90
2023-02-27T15:09:53.666Z,57.30
2023-02-27T15:12:55.556Z,57.50
2023-02-27T15:16:25.199Z,57.80
2023-02-27T15:19:28.248Z,58.10
2023-02-27T15:22:39.008Z,57.80
2023-02-27T15:25:41.469Z,57.00
2023-02-27T15:28:43.145Z,56.10
2023-02-27T15:31:45.753Z,55.10
2023-02-27T15:34:47.570Z,54.30
2023-02-27T15:37:52.601Z,53.70
2023-02-27T15:40:54.525Z,54.10
2023-02-27T15:43:56.286Z,54.70
2023-02-27T15:46:58.335Z,55.30
2023-02-27T15:50:10.059Z,55.80
2023-02-27T15:53:13.070Z,56.10
2023-02-27T15:56:14.916Z,56.30
2023-02-27T15:59:17.258Z,56.60
2023-02-27T16:02:28.807Z,56.70
2023-02-27T16:05:35.445Z,56.80
2023-02-27T16:08:46.974Z,56.00
2023-02-27T16:11:49.523Z,55.60
2023-02-27T16:14:52.784Z,55.90
2023-02-27T16:17:54.818Z,56.50
2023-02-27T16:21:07.886Z,56.60
2023-02-27T16:24:20.298Z,56.20
2023-02-27T16:27:26.363Z,55.50
2023-02-27T16:30:28.633Z,55.30
2023-02-27T16:33:32.897Z,55.80
2023-02-27T16:36:34.704Z,56.00
2023-02-27T16:39:36.341Z,56.30
2023-02-27T16:42:38.067Z,56.80
2023-02-27T16:45:49.292Z,57.10
2023-02-27T16:48:55.764Z,57.30
2023-02-27T16:51:58.674Z,57.40
2023-02-27T16:55:00.340Z,57.40
2023-02-27T16:58:01.988Z,57.90
2023-02-27T17:01:03.791Z,58.30
2023-02-27T17:04:16.473Z,58.80
2023-02-27T17:07:25.312Z,59.30
2023-02-27T17:10:27.289Z,59.70
2023-02-27T17:13:28.957Z,60.00
2023-02-27T17:16:30.966Z,60.20
2023-02-27T17:19:33.195Z,60.50
2023-02-27T17:22:36.767Z,60.90
2023-02-27T17:25:39.804Z,61.30
2023-02-27T17:28:41.535Z,61.70
2023-02-27T17:31:44.684Z,61.90
2023-02-27T17:34:46.392Z,62.10
2023-02-27T17:37:48.039Z,62.30
2023-02-27T17:40:49.682Z,62.60
2023-02-27T17:43:52.671Z,63.00
2023-02-27T17:46:54.326Z,63.00
2023-02-27T17:49:55.978Z,63.10
2023-02-27T17:52:57.874Z,63.20
2023-02-27T17:55:59.522Z,63.30
2023-02-27T17:59:01.176Z,63.40
2023-02-27T18:02:04.051Z,63.60
2023-02-27T18:05:06.546Z,63.70
2023-02-27T18:08:08.173Z,63.90
2023-02-27T18:11:11.419Z,64.20
2023-02-27T18:14:13.866Z,64.40
2023-02-27T18:17:15.540Z,64.70
2023-02-27T18:20:17.322Z,64.80
2023-02-27T18:23:18.981Z,64.70
2023-02-27T18:26:29.899Z,64.90
2023-02-27T18:29:32.317Z,65.00
2023-02-27T18:32:34.020Z,64.90
2023-02-27T18:35:35.819Z,65.00
2023-02-27T18:38:37.701Z,65.00
2023-02-27T18:41:39.652Z,65.10
2023-02-27T18:44:42.036Z,65.20
2023-02-27T18:47:43.668Z,65.10
2023-02-27T18:50:45.434Z,65.10
2023-02-27T18:53:48.890Z,65.20
2023-02-27T18:56:51.103Z,65.20
2023-02-27T18:59:53.591Z,65.50
2023-02-27T19:02:55.594Z,65.70
2023-02-27T19:05:57.729Z,65.80
2023-02-27T19:08:59.484Z,66.20
2023-02-27T19:12:01.333Z,66.50
2023-02-27T19:15:03.547Z,66.80
2023-02-27T19:18:06.765Z,66.90
2023-02-27T19:21:08.630Z,66.90
2023-02-27T19:24:11.331Z,66.80
2023-02-27T19:27:13.183Z,66.70
2023-02-27T19:30:15.009Z,66.60
2023-02-27T19:33:16.873Z,66.60
2023-02-27T19:36:19.756Z,66.40
2023-02-27T19:39:22.882Z,66.20
2023-02-27T19:42:25.949Z,66.20
2023-02-27T19:45:28.053Z,66.10
2023-02-27T19:48:29.725Z,66.10
2023-02-27T19:51:31.588Z,66.00
2023-02-27T19:54:33.296Z,66.10
2023-02-27T19:57:35.601Z,66.10
2023-02-27T20:00:37.277Z,66.00
2023-02-27T20:03:43.449Z,65.90
2023-02-27T20:06:46.237Z,65.90
2023-02-27T20:09:48.036Z,65.90
2023-02-27T20:12:50.938Z,65.90
2023-02-27T20:15:59.595Z,65.90
2023-02-27T20:19:02.739Z,65.90
2023-02-27T20:22:04.824Z,65.90
2023-02-27T20:25:06.959Z,65.90
2023-02-27T20:28:08.602Z,65.80
2023-02-27T20:31:10.806Z,65.80
2023-02-27T20:34:15.763Z,65.70
2023-02-27T20:37:17.542Z,65.60
2023-02-27T20:40:19.275Z,65.60
2023-02-27T20:43:21.217Z,65.50
2023-02-27T20:46:24.695Z,65.50
2023-02-27T20:49:26.450Z,65.50
2023-02-27T20:52:28.525Z,65.50
2023-02-27T20:55:30.232Z,65.50
